createdAt,value
2023-03-06T00:00:40.788Z,97810.17
2023-03-06T00:03:19.034Z,97812.84
2023-03-06T00:05:47.996Z,97813.41
2023-03-06T00:08:17.159Z,97805.64
2023-03-06T00:10:46.607Z,97803.23
2023-03-06T00:13:19.199Z,97798.83
2023-03-06T00:15:49.137Z,97797.36
2023-03-06T00:18:17.704Z,97797.55
2023-03-06T00:20:46.392Z,97797.25
2023-03-06T00:23:15.759Z,97793.17
2023-03-06T00:25:46.212Z,97791.15
2023-03-06T00:28:16.096Z,97792.56
2023-03-06T00:30:46.632Z,97793.20
2023-03-06T00:33:15.225Z,97791.52
2023-03-06T00:35:43.868Z,97788.31
2023-03-06T00:38:15.254Z,97782.94
2023-03-06T00:40:43.956Z,97777.61
2023-03-06T00:43:12.869Z,97780.16
2023-03-06T00:45:42.175Z,97781.92
2023-03-06T00:48:10.797Z,97782.84
2023-03-06T00:50:40.514Z,97777.56
2023-03-06T00:53:11.672Z,97770.58
2023-03-06T00:55:40.259Z,97767.92
2023-03-06T00:58:08.827Z,97764.35
2023-03-06T01:00:38.586Z,97757.69
2023-03-06T01:03:08.336Z,97751.89
2023-03-06T01:05:37.850Z,97748.10
2023-03-06T01:08:09.386Z,97752.79
2023-03-06T01:10:39.924Z,97745.71
2023-03-06T01:13:09.049Z,97744.55
2023-03-06T01:15:37.672Z,97740.77
2023-03-06T01:18:06.443Z,97738.68
2023-03-06T01:20:38.214Z,97736.02
2023-03-06T01:23:07.412Z,97726.28
2023-03-06T01:25:36.028Z,97727.73
2023-03-06T01:28:05.349Z,97724.36
2023-03-06T01:30:34.217Z,97714.45
2023-03-06T01:33:03.093Z,97711.52
2023-03-06T01:35:32.435Z,97711.00
2023-03-06T01:38:01.247Z,97709.59
2023-03-06T01:40:35.639Z,97708.84
2023-03-06T01:43:27.098Z,97704.77
2023-03-06T01:46:17.840Z,97705.20
2023-03-06T01:48:48.865Z,97695.00
2023-03-06T01:51:17.659Z,97689.17
2023-03-06T01:53:47.643Z,97688.23
2023-03-06T01:56:16.838Z,97689.77
2023-03-06T01:58:46.537Z,97688.31
2023-03-06T02:01:15.996Z,97684.23
2023-03-06T02:03:47.933Z,97681.94
2023-03-06T02:06:20.037Z,97679.23
2023-03-06T02:08:52.368Z,97673.00
2023-03-06T02:11:23.867Z,97672.52
2023-03-06T02:13:55.366Z,97667.80
2023-03-06T02:16:29.983Z,97668.23
2023-03-06T02:19:02.484Z,97664.85
2023-03-06T02:21:34.468Z,97657.30
2023-03-06T02:24:30.050Z,97652.81
2023-03-06T02:27:01.158Z,97656.84
2023-03-06T02:29:31.435Z,97649.77
2023-03-06T02:32:02.143Z,97647.16
2023-03-06T02:34:30.852Z,97642.98
2023-03-06T02:37:05.874Z,97639.79
2023-03-06T02:39:39.724Z,97634.49
2023-03-06T02:42:09.037Z,97632.52
2023-03-06T02:44:37.993Z,97633.43
2023-03-06T02:47:08.063Z,97631.34
2023-03-06T02:49:36.682Z,97626.41
2023-03-06T02:52:08.066Z,97627.96
2023-03-06T02:54:36.749Z,97627.31
2023-03-06T02:57:05.709Z,97625.83
2023-03-06T02:59:35.145Z,97627.63
2023-03-06T03:02:04.087Z,97628.21
2023-03-06T03:04:33.056Z,97627.35
2023-03-06T03:07:02.710Z,97627.38
2023-03-06T03:09:37.516Z,97628.64
2023-03-06T03:12:07.551Z,97624.59
2023-03-06T03:14:36.255Z,97622.92
2023-03-06T03:17:05.458Z,97622.27
2023-03-06T03:19:34.797Z,97622.78
2023-03-06T03:22:03.450Z,97619.29
2023-03-06T03:24:32.467Z,97610.84
2023-03-06T03:27:02.958Z,97608.49
2023-03-06T03:29:32.632Z,97614.08
2023-03-06T03:32:01.829Z,97614.25
2023-03-06T03:34:30.982Z,97609.00
2023-03-06T03:36:59.604Z,97606.96
2023-03-06T03:39:28.560Z,97603.70
2023-03-06T03:41:59.108Z,97601.78
2023-03-06T03:44:28.369Z,97597.17
2023-03-06T03:46:57.791Z,97598.93
2023-03-06T03:49:26.797Z,97597.59
2023-03-06T03:51:55.665Z,97596.06
2023-03-06T03:54:25.076Z,97596.34
2023-03-06T03:56:54.489Z,97592.92
2023-03-06T03:59:27.195Z,97589.97
2023-03-06T04:02:05.966Z,97587.53
2023-03-06T04:04:39.108Z,97585.71
2023-03-06T04:07:08.801Z,97587.95
2023-03-06T04:09:38.282Z,97587.47
2023-03-06T04:12:08.319Z,97584.67
2023-03-06T04:14:38.308Z,97582.89
2023-03-06T04:17:07.224Z,97581.20
2023-03-06T04:19:36.311Z,97581.23
2023-03-06T04:22:05.353Z,97579.40
2023-03-06T04:24:34.623Z,97577.79
2023-03-06T04:27:04.514Z,97577.42
2023-03-06T04:29:33.483Z,97572.49
2023-03-06T04:32:02.868Z,97567.27
2023-03-06T04:34:32.122Z,97566.27
2023-03-06T04:37:01.204Z,97561.38
2023-03-06T04:39:30.377Z,97562.59
2023-03-06T04:41:59.314Z,97562.39
2023-03-06T04:44:28.688Z,97561.39
2023-03-06T04:46:58.682Z,97563.48
2023-03-06T04:49:27.542Z,97560.00
2023-03-06T04:51:56.441Z,97563.55
2023-03-06T04:54:25.125Z,97562.48
2023-03-06T04:56:53.989Z,97559.14
2023-03-06T04:59:23.033Z,97560.52
2023-03-06T05:01:51.962Z,97556.45
2023-03-06T05:04:21.305Z,97560.63
2023-03-06T05:06:50.192Z,97556.50
2023-03-06T05:09:18.746Z,97551.89
2023-03-06T05:11:47.958Z,97551.14
2023-03-06T05:14:16.645Z,97550.48
2023-03-06T05:16:47.680Z,97547.81
2023-03-06T05:19:17.011Z,97549.14
2023-03-06T05:21:45.686Z,97548.84
2023-03-06T05:24:14.262Z,97551.41
2023-03-06T05:26:43.565Z,97555.61
2023-03-06T05:29:12.175Z,97555.36
2023-03-06T05:31:40.756Z,97552.77
2023-03-06T05:34:13.856Z,97548.12
2023-03-06T05:36:43.206Z,97544.86
2023-03-06T05:39:11.965Z,97547.38
2023-03-06T05:41:40.902Z,97547.19
2023-03-06T05:44:09.908Z,97547.70
2023-03-06T05:46:38.813Z,97548.73
2023-03-06T05:49:07.589Z,97548.34
2023-03-06T05:51:36.477Z,97546.59
2023-03-06T05:54:05.040Z,97553.73
2023-03-06T05:56:33.776Z,97553.67
2023-03-06T05:59:03.520Z,97551.48
2023-03-06T06:01:32.146Z,97555.71
2023-03-06T06:04:01.228Z,97552.60
2023-03-06T06:06:30.405Z,97551.23
2023-03-06T06:08:58.952Z,97547.90
2023-03-06T06:11:27.809Z,97547.11
2023-03-06T06:13:56.772Z,97546.03
2023-03-06T06:16:25.284Z,97548.08
2023-03-06T06:18:54.282Z,97551.89
2023-03-06T06:21:23.175Z,97549.29
2023-03-06T06:23:51.805Z,97551.50
2023-03-06T06:26:20.537Z,97552.23
2023-03-06T06:28:49.758Z,97553.17
2023-03-06T06:31:19.103Z,97551.73
2023-03-06T06:33:47.926Z,97548.28
2023-03-06T06:36:19.676Z,97547.54
2023-03-06T06:38:50.238Z,97546.39
2023-03-06T06:41:53.084Z,97543.64
2023-03-06T06:44:11.790Z,97547.81
2023-03-06T06:49:30.438Z,97557.27
2023-03-06T06:51:59.757Z,97555.98
2023-03-06T06:54:28.485Z,97553.69
2023-03-06T06:56:57.184Z,97560.50
2023-03-06T06:59:26.248Z,97559.79
2023-03-06T07:01:54.810Z,97559.42
2023-03-06T07:04:24.055Z,97555.93
2023-03-06T07:06:59.054Z,97560.02
2023-03-06T07:09:28.375Z,97556.88
2023-03-06T07:11:58.481Z,97558.83
2023-03-06T07:14:27.598Z,97560.86
2023-03-06T07:16:56.738Z,97558.17
2023-03-06T07:19:25.721Z,97557.46
2023-03-06T07:21:54.394Z,97556.17
2023-03-06T07:24:23.699Z,97554.46
2023-03-06T07:26:52.741Z,97554.48
2023-03-06T07:29:21.351Z,97552.10
2023-03-06T07:31:50.513Z,97551.55
2023-03-06T07:34:19.366Z,97546.06
2023-03-06T07:36:47.950Z,97550.23
2023-03-06T07:39:17.041Z,97552.89
2023-03-06T07:41:46.355Z,97549.45
2023-03-06T07:44:14.922Z,97551.74
2023-03-06T07:46:44.067Z,97550.91
2023-03-06T07:49:13.661Z,97551.77
2023-03-06T07:51:42.376Z,97550.59
2023-03-06T07:54:11.552Z,97554.77
2023-03-06T07:56:40.509Z,97553.61
2023-03-06T07:59:11.103Z,97551.97
2023-03-06T08:01:40.695Z,97556.21
2023-03-06T08:04:09.671Z,97554.81
2023-03-06T08:06:38.269Z,97550.02
2023-03-06T08:09:07.415Z,97552.98
2023-03-06T08:11:36.701Z,97549.16
2023-03-06T08:14:34.504Z,97551.27
2023-03-06T08:17:06.562Z,97551.27
2023-03-06T08:19:35.483Z,97548.02
2023-03-06T08:22:06.250Z,97546.51
2023-03-06T08:24:35.177Z,97548.21
2023-03-06T08:27:03.912Z,97545.10
2023-03-06T08:29:32.683Z,97545.77
2023-03-06T08:32:01.563Z,97546.27
2023-03-06T08:34:30.338Z,97547.61
2023-03-06T08:36:59.094Z,97547.06
2023-03-06T08:39:28.168Z,97545.14
2023-03-06T08:41:56.780Z,97546.50
2023-03-06T08:44:25.428Z,97545.31
2023-03-06T08:46:54.279Z,97544.63
2023-03-06T08:49:22.879Z,97549.29
2023-03-06T08:51:51.523Z,97546.39
2023-03-06T08:54:20.747Z,97546.38
2023-03-06T08:56:49.387Z,97547.09
2023-03-06T08:59:18.298Z,97548.34
2023-03-06T09:01:47.392Z,97552.14
2023-03-06T09:04:15.966Z,97550.44
2023-03-06T09:06:45.700Z,97553.04
2023-03-06T09:09:14.762Z,97552.86
2023-03-06T09:11:43.418Z,97550.30
2023-03-06T09:14:12.249Z,97552.52
2023-03-06T09:16:41.623Z,97550.62
2023-03-06T09:19:10.371Z,97553.51
2023-03-06T09:21:48.823Z,97550.59
2023-03-06T09:24:24.159Z,97552.52
2023-03-06T09:26:52.900Z,97555.81
2023-03-06T09:29:22.181Z,97552.05
2023-03-06T09:31:51.058Z,97556.20
2023-03-06T09:34:20.072Z,97550.38
2023-03-06T09:36:56.917Z,97547.30
2023-03-06T09:39:27.621Z,97548.86
2023-03-06T09:41:58.505Z,97548.35
2023-03-06T09:44:34.397Z,97548.52
2023-03-06T09:47:45.878Z,97546.65
2023-03-06T09:50:29.880Z,97544.42
2023-03-06T09:53:20.461Z,97544.78
2023-03-06T09:55:58.598Z,97543.23
2023-03-06T09:58:30.054Z,97539.59
2023-03-06T10:01:11.691Z,97538.73
2023-03-06T10:03:54.959Z,97533.73
2023-03-06T10:06:23.924Z,97532.17
2023-03-06T10:09:13.524Z,97533.02
2023-03-06T10:11:47.610Z,97525.45
2023-03-06T10:14:40.617Z,97519.94
2023-03-06T10:17:17.379Z,97519.95
2023-03-06T10:19:49.698Z,97517.03
2023-03-06T10:22:46.102Z,97519.79
2023-03-06T10:25:24.733Z,97519.64
2023-03-06T10:28:11.884Z,97517.39
2023-03-06T10:30:43.657Z,97519.81
2023-03-06T10:36:29.515Z,97509.64
2023-03-06T10:38:59.227Z,97511.86
2023-03-06T10:41:32.636Z,97513.94
2023-03-06T10:44:01.380Z,97516.86
2023-03-06T10:46:31.548Z,97514.45
2023-03-06T10:49:23.728Z,97511.34
2023-03-06T10:52:26.132Z,97509.25
2023-03-06T10:55:24.015Z,97512.46
2023-03-06T10:57:52.840Z,97510.16
2023-03-06T11:00:32.172Z,97512.16
2023-03-06T11:03:24.856Z,97509.01
2023-03-06T11:06:02.703Z,97506.55
2023-03-06T11:08:31.866Z,97501.71
2023-03-06T11:11:07.515Z,97501.73
2023-03-06T11:13:39.567Z,97499.65
2023-03-06T11:16:19.346Z,97494.48
2023-03-06T11:19:18.968Z,97495.69
2023-03-06T11:22:20.467Z,97491.23
2023-03-06T11:24:53.947Z,97491.58
2023-03-06T11:27:35.034Z,97481.91
2023-03-06T11:30:09.470Z,97476.92
2023-03-06T11:32:46.666Z,97482.09
2023-03-06T11:35:28.648Z,97476.42
2023-03-06T11:38:27.317Z,97477.30
2023-03-06T11:41:01.749Z,97474.72
2023-03-06T11:43:35.430Z,97476.95
2023-03-06T11:46:26.530Z,97473.68
2023-03-06T11:49:10.500Z,97472.13
2023-03-06T11:51:48.503Z,97467.66
2023-03-06T11:54:17.417Z,97465.59
2023-03-06T11:57:18.494Z,97459.95
2023-03-06T12:00:17.684Z,97458.41
2023-03-06T12:02:58.417Z,97458.42
2023-03-06T12:05:32.206Z,97454.98
2023-03-06T12:08:39.210Z,97456.02
2023-03-06T12:11:26.746Z,97455.33
2023-03-06T12:14:10.537Z,97449.11
2023-03-06T12:16:39.737Z,97449.42
2023-03-06T12:19:30.301Z,97447.52
2023-03-06T12:22:14.234Z,97445.58
2023-03-06T12:25:09.794Z,97441.79
2023-03-06T12:28:15.411Z,97438.02
2023-03-06T12:31:18.391Z,97434.23
2023-03-06T12:34:26.193Z,97433.06
2023-03-06T12:37:01.662Z,97431.56
2023-03-06T12:40:07.144Z,97429.88
2023-03-06T12:43:10.625Z,97428.38
2023-03-06T12:45:41.293Z,97425.84
2023-03-06T12:48:18.211Z,97424.30
2023-03-06T12:50:48.457Z,97426.55
2023-03-06T12:53:32.377Z,97429.86
2023-03-06T12:56:02.952Z,97425.38
2023-03-06T12:58:31.653Z,97424.02
2023-03-06T13:01:20.560Z,97424.20
2023-03-06T13:03:58.014Z,97422.31
2023-03-06T13:07:04.771Z,97416.45
2023-03-06T13:09:55.378Z,97407.69
2023-03-06T13:12:42.899Z,97408.55
2023-03-06T13:15:42.576Z,97405.96
2023-03-06T13:18:23.742Z,97407.85
2023-03-06T13:20:56.656Z,97409.05
2023-03-06T13:23:34.740Z,97405.61
2023-03-06T13:29:38.628Z,97400.79
2023-03-06T13:32:18.739Z,97395.80
2023-03-06T13:34:49.534Z,97395.11
2023-03-06T13:37:18.901Z,97397.53
2023-03-06T13:40:00.669Z,97394.95
2023-03-06T13:42:37.474Z,97399.41
2023-03-06T13:45:08.910Z,97400.45
2023-03-06T13:48:22.643Z,97400.45
2023-03-06T13:50:52.226Z,97396.14
2023-03-06T13:53:33.782Z,97396.84
2023-03-06T13:56:17.748Z,97395.47
2023-03-06T13:59:00.815Z,97393.06
2023-03-06T14:01:47.188Z,97391.33
2023-03-06T14:04:33.129Z,97386.68
2023-03-06T14:07:22.282Z,97383.06
2023-03-06T14:10:21.502Z,97380.84
2023-03-06T14:12:50.203Z,97377.05
2023-03-06T14:15:26.504Z,97375.67
2023-03-06T14:18:06.423Z,97369.64
2023-03-06T14:20:39.671Z,97363.97
2023-03-06T14:23:17.030Z,97369.13
2023-03-06T14:25:47.633Z,97368.97
2023-03-06T14:28:25.481Z,97368.11
2023-03-06T14:30:56.261Z,97363.80
2023-03-06T14:33:32.669Z,97363.11
2023-03-06T14:36:04.565Z,97361.55
2023-03-06T14:38:38.406Z,97358.98
2023-03-06T14:41:12.386Z,97359.15
2023-03-06T14:43:42.081Z,97358.63
2023-03-06T14:46:22.488Z,97360.52
2023-03-06T14:48:52.801Z,97358.45
2023-03-06T14:51:23.432Z,97358.45
2023-03-06T14:54:01.314Z,97362.08
2023-03-06T14:56:35.551Z,97361.39
2023-03-06T14:59:22.673Z,97361.56
2023-03-06T15:01:58.829Z,97360.52
2023-03-06T15:04:47.284Z,97358.29
2023-03-06T15:07:30.825Z,97360.00
2023-03-06T15:10:00.944Z,97359.84
2023-03-06T15:12:34.226Z,97357.09
2023-03-06T15:15:11.429Z,97355.54
2023-03-06T15:17:41.071Z,97353.82
2023-03-06T15:20:47.264Z,97352.95
2023-03-06T15:23:21.647Z,97357.92
2023-03-06T15:25:56.850Z,97351.89
2023-03-06T15:28:39.826Z,97353.95
2023-03-06T15:31:13.326Z,97350.49
2023-03-06T15:33:42.175Z,97354.61
2023-03-06T15:36:21.835Z,97355.10
2023-03-06T15:38:51.324Z,97357.83
2023-03-06T15:41:29.032Z,97355.23
2023-03-06T15:44:03.101Z,97357.45
2023-03-06T15:46:32.125Z,97355.86
2023-03-06T15:49:05.252Z,97359.45
2023-03-06T15:51:34.338Z,97361.84
2023-03-06T15:54:11.895Z,97358.38
2023-03-06T15:56:45.334Z,97360.59
2023-03-06T15:59:24.185Z,97361.79
2023-03-06T16:01:53.769Z,97359.19
2023-03-06T16:04:22.712Z,97361.40
2023-03-06T16:06:51.376Z,97365.65
2023-03-06T16:09:20.261Z,97363.73
2023-03-06T16:11:49.269Z,97365.94
2023-03-06T16:14:21.808Z,97367.48
2023-03-06T16:16:54.471Z,97370.16
2023-03-06T16:19:27.425Z,97372.38
2023-03-06T16:21:57.328Z,97376.15
2023-03-06T16:24:27.085Z,97370.29
2023-03-06T16:26:59.259Z,97380.73
2023-03-06T16:29:29.863Z,97383.80
2023-03-06T16:31:59.313Z,97382.03
2023-03-06T16:34:30.990Z,97381.52
2023-03-06T16:36:59.855Z,97379.23
2023-03-06T16:39:28.704Z,97382.33
2023-03-06T16:41:57.519Z,97380.76
2023-03-06T16:44:26.280Z,97382.80
2023-03-06T16:46:54.889Z,97384.48
2023-03-06T16:49:25.441Z,97386.50
2023-03-06T16:51:54.986Z,97390.23
2023-03-06T16:54:26.443Z,97391.70
2023-03-06T16:56:57.896Z,97388.88
2023-03-06T16:59:32.191Z,97387.92
2023-03-06T17:02:33.161Z,97391.28
2023-03-06T17:05:12.572Z,97387.12
2023-03-06T17:11:16.978Z,97393.68
2023-03-06T17:13:49.473Z,97388.90
2023-03-06T17:20:13.334Z,97392.52
2023-03-06T17:22:42.373Z,97395.08
2023-03-06T17:25:11.854Z,97395.58
2023-03-06T17:27:40.741Z,97392.08
2023-03-06T17:30:13.568Z,97392.48
2023-03-06T17:32:42.721Z,97390.48
2023-03-06T17:35:11.619Z,97388.85
2023-03-06T17:37:40.448Z,97392.50
2023-03-06T17:40:10.677Z,97394.95
2023-03-06T17:42:39.468Z,97400.11
2023-03-06T17:45:12.152Z,97400.89
2023-03-06T17:47:40.960Z,97397.77
2023-03-06T17:50:13.593Z,97396.61
2023-03-06T17:52:42.844Z,97398.81
2023-03-06T17:55:11.673Z,97401.45
2023-03-06T17:57:42.755Z,97403.42
2023-03-06T18:00:12.061Z,97405.23
2023-03-06T18:02:57.224Z,97407.14
2023-03-06T18:05:46.314Z,97406.62
2023-03-06T18:08:39.229Z,97409.88
2023-03-06T18:11:25.243Z,97407.83
2023-03-06T18:14:15.935Z,97411.77
2023-03-06T18:17:08.382Z,97410.57
2023-03-06T18:19:53.826Z,97410.77
2023-03-06T18:22:42.827Z,97413.91
2023-03-06T18:25:38.806Z,97412.31
2023-03-06T18:28:35.200Z,97421.16
2023-03-06T18:31:34.394Z,97418.13
2023-03-06T18:34:23.535Z,97417.45
2023-03-06T18:37:25.155Z,97418.20
2023-03-06T18:40:22.367Z,97417.56
2023-03-06T18:43:06.914Z,97416.91
2023-03-06T18:45:36.434Z,97420.20
2023-03-06T18:48:06.412Z,97425.19
2023-03-06T18:50:39.136Z,97423.98
2023-03-06T18:53:08.509Z,97428.94
2023-03-06T18:55:37.686Z,97432.83
2023-03-06T18:58:06.655Z,97435.81
2023-03-06T19:00:35.889Z,97440.52
2023-03-06T19:03:04.705Z,97447.67
2023-03-06T19:05:33.815Z,97440.64
2023-03-06T19:08:03.407Z,97437.20
2023-03-06T19:10:38.417Z,97436.48
2023-03-06T19:13:08.519Z,97434.79
2023-03-06T19:15:48.592Z,97430.05
2023-03-06T19:18:18.309Z,97430.83
2023-03-06T19:20:46.924Z,97432.80
2023-03-06T19:23:15.849Z,97434.92
2023-03-06T19:25:55.069Z,97437.19
2023-03-06T19:28:23.849Z,97436.13
2023-03-06T19:30:53.302Z,97439.14
2023-03-06T19:33:22.042Z,97437.86
2023-03-06T19:35:51.354Z,97438.65
2023-03-06T19:38:20.575Z,97434.58
2023-03-06T19:40:51.793Z,97437.81
2023-03-06T19:43:20.984Z,97435.20
2023-03-06T19:45:49.655Z,97432.13
2023-03-06T19:48:18.535Z,97431.02
2023-03-06T19:50:47.769Z,97434.06
2023-03-06T19:53:17.166Z,97437.35
2023-03-06T19:55:46.087Z,97433.30
2023-03-06T19:58:15.665Z,97437.77
2023-03-06T20:00:45.074Z,97436.16
2023-03-06T20:03:17.611Z,97438.98
2023-03-06T20:05:50.756Z,97437.56
2023-03-06T20:08:19.302Z,97437.52
2023-03-06T20:10:48.462Z,97435.92
2023-03-06T20:13:18.861Z,97439.20
2023-03-06T20:15:47.477Z,97440.38
2023-03-06T20:18:16.683Z,97441.52
2023-03-06T20:20:45.982Z,97444.81
2023-03-06T20:23:16.578Z,97442.76
2023-03-06T20:25:48.754Z,97444.46
2023-03-06T20:28:17.316Z,97446.20
2023-03-06T20:30:46.452Z,97447.70
2023-03-06T20:33:17.122Z,97448.52
2023-03-06T20:35:45.782Z,97452.48
2023-03-06T20:38:14.778Z,97452.71
2023-03-06T20:40:44.547Z,97452.91
2023-03-06T20:43:13.333Z,97452.52
2023-03-06T20:45:41.918Z,97456.81
2023-03-06T20:48:10.968Z,97453.70
2023-03-06T20:50:39.559Z,97452.02
2023-03-06T20:53:08.171Z,97450.96
2023-03-06T20:55:38.301Z,97450.98
2023-03-06T20:58:07.174Z,97453.08
2023-03-06T21:00:36.102Z,97451.55
2023-03-06T21:03:06.074Z,97451.72
2023-03-06T21:05:34.988Z,97449.83
2023-03-06T21:08:03.622Z,97453.04
2023-03-06T21:10:33.094Z,97447.83
2023-03-06T21:13:01.636Z,97448.24
2023-03-06T21:15:31.275Z,97445.87
2023-03-06T21:18:00.312Z,97452.09
2023-03-06T21:20:28.840Z,97448.77
2023-03-06T21:22:58.061Z,97448.10
2023-03-06T21:25:27.588Z,97444.02
2023-03-06T21:27:56.657Z,97447.15
2023-03-06T21:30:25.505Z,97449.09
2023-03-06T21:32:54.858Z,97452.25
2023-03-06T21:35:23.486Z,97450.39
2023-03-06T21:37:52.197Z,97449.72
2023-03-06T21:40:21.642Z,97452.30
2023-03-06T21:42:50.173Z,97452.01
2023-03-06T21:45:19.145Z,97449.80
2023-03-06T21:47:49.349Z,97450.16
2023-03-06T21:50:18.272Z,97447.42
2023-03-06T21:52:46.852Z,97446.05
2023-03-06T21:55:16.442Z,97448.45
2023-03-06T21:57:50.509Z,97449.79
2023-03-06T22:00:20.563Z,97447.84
2023-03-06T22:02:49.768Z,97447.59
2023-03-06T22:05:18.928Z,97448.85
2023-03-06T22:07:47.827Z,97448.08
2023-03-06T22:10:16.457Z,97446.65
2023-03-06T22:12:46.908Z,97444.94
2023-03-06T22:15:16.196Z,97436.05
2023-03-06T22:17:45.629Z,97436.04
2023-03-06T22:20:14.288Z,97429.61
2023-03-06T22:22:44.384Z,97432.59
2023-03-06T22:25:15.147Z,97430.45
2023-03-06T22:27:43.796Z,97429.11
2023-03-06T22:30:13.662Z,97426.20
2023-03-06T22:32:42.563Z,97424.90
2023-03-06T22:35:11.826Z,97422.15
2023-03-06T22:37:40.692Z,97415.77
2023-03-06T22:40:10.164Z,97413.45
2023-03-06T22:42:39.011Z,97411.89
2023-03-06T22:45:08.895Z,97413.58
2023-03-06T22:47:38.186Z,97413.75
2023-03-06T22:50:08.722Z,97411.44
2023-03-06T22:52:37.505Z,97410.69
2023-03-06T22:55:06.917Z,97410.93
2023-03-06T22:57:36.330Z,97410.39
2023-03-06T23:00:05.376Z,97413.08
2023-03-06T23:02:35.421Z,97413.32
2023-03-06T23:05:04.834Z,97413.64
2023-03-06T23:07:33.742Z,97413.71
2023-03-06T23:10:07.073Z,97411.52
2023-03-06T23:12:54.783Z,97409.09
2023-03-06T23:15:41.924Z,97406.30
2023-03-06T23:18:30.396Z,97407.69
2023-03-06T23:21:19.495Z,97412.49
2023-03-06T23:24:08.055Z,97411.98
2023-03-06T23:26:37.406Z,97414.05
2023-03-06T23:29:06.059Z,97414.73
2023-03-06T23:31:35.174Z,97415.57
2023-03-06T23:34:04.341Z,97414.69
2023-03-06T23:36:32.940Z,97414.70
2023-03-06T23:39:02.238Z,97416.13
2023-03-06T23:41:31.210Z,97414.75
2023-03-06T23:44:00.130Z,97410.48
2023-03-06T23:46:28.893Z,97412.86
2023-03-06T23:48:57.483Z,97414.73
2023-03-06T23:51:26.398Z,97410.10
2023-03-06T23:53:59.073Z,97407.25
2023-03-06T23:56:28.855Z,97408.54
2023-03-06T23:58:57.605Z,97410.36
